Time;durP1;ratioP1;P1;durP2;ratioP2;P2;SDS_P1;SDS_P2;PMS_P1;PMS_P2;Temp;Humidity;BMP_temperature;BMP_pressure;BME280_temperature;BME280_humidity;BME280_pressure;Samples;Min_cycle;Max_cycle;Signal;HPM_P1;HPM_P2
2022/10/14 00:00:41;;;;;;;52.15;35.50;;;12.80;99.90;;;;;;5036354;28;20045;-30
2022/10/14 00:03:07;;;;;;;47.03;32.00;;;12.70;99.90;;;;;;5036230;28;20051;-30
2022/10/14 00:05:32;;;;;;;50.85;35.60;;;12.70;99.90;;;;;;5069622;28;20049;-30
2022/10/14 00:07:58;;;;;;;47.22;32.53;;;12.70;99.90;;;;;;5069598;28;20036;-29
2022/10/14 00:10:24;;;;;;;46.17;31.60;;;12.70;99.90;;;;;;5058414;28;20037;-30
2022/10/14 00:12:50;;;;;;;48.22;33.05;;;12.70;99.90;;;;;;5035218;28;20064;-30
2022/10/14 00:15:16;;;;;;;47.92;32.58;;;12.70;99.90;;;;;;5035889;28;20123;-30
2022/10/14 00:17:42;;;;;;;52.88;34.63;;;12.70;99.90;;;;;;5019209;28;20050;-29
2022/10/14 00:20:08;;;;;;;53.63;34.70;;;12.60;99.90;;;;;;5035365;28;20036;-29
2022/10/14 00:22:34;;;;;;;49.03;31.42;;;12.60;99.90;;;;;;5035737;28;20124;-30
2022/10/14 00:25:00;;;;;;;45.63;31.95;;;12.60;99.90;;;;;;5036043;28;20084;-30
2022/10/14 00:27:26;;;;;;;45.80;32.85;;;12.60;99.90;;;;;;5035936;28;20037;-32
2022/10/14 00:29:51;;;;;;;43.88;31.00;;;12.60;99.90;;;;;;5035658;28;20087;-29
2022/10/14 00:32:17;;;;;;;51.55;32.28;;;12.50;99.90;;;;;;5035853;28;20416;-29
2022/10/14 00:34:43;;;;;;;48.40;32.30;;;12.50;99.90;;;;;;5006638;28;20041;-30
2022/10/14 00:37:09;;;;;;;43.20;29.40;;;12.40;99.90;;;;;;5033962;28;20039;-30
2022/10/14 00:39:35;;;;;;;47.53;31.33;;;12.40;99.90;;;;;;5035717;28;20090;-29
2022/10/14 00:42:02;;;;;;;48.55;32.40;;;12.20;99.90;;;;;;5035248;28;20041;-29
2022/10/14 00:44:27;;;;;;;58.30;34.25;;;12.20;99.90;;;;;;5018788;28;20051;-30
2022/10/14 00:46:54;;;;;;;46.97;32.15;;;12.10;99.90;;;;;;5048699;28;20482;-29
2022/10/14 00:49:25;;;;;;;44.35;31.00;;;12.10;99.90;;;;;;5053327;28;20051;-31
2022/10/14 00:52:09;;;;;;;45.78;29.13;;;12.00;99.90;;;;;;5035060;28;20092;-29
2022/10/14 00:55:05;;;;;;;49.40;30.60;;;11.90;99.90;;;;;;5046690;28;20098;-29
2022/10/14 00:57:31;;;;;;;49.92;32.35;;;11.90;99.90;;;;;;5034645;28;20107;-29
2022/10/14 01:00:05;;;;;;;44.25;28.98;;;11.80;99.90;;;;;;5035245;28;20041;-29
2022/10/14 01:02:31;;;;;;;;;;;11.80;99.90;;;;;;5035204;28;20041;-29
2022/10/14 01:04:58;;;;;;;51.55;30.17;;;11.80;99.90;;;;;;5035166;28;19921;-30
2022/10/14 01:07:33;;;;;;;49.58;31.02;;;11.90;99.90;;;;;;5035164;28;20040;-28
2022/10/14 01:10:04;;;;;;;52.50;32.33;;;11.90;99.90;;;;;;5035184;28;20110;-30
2022/10/14 01:12:55;;;;;;;47.30;29.75;;;11.90;99.90;;;;;;5034430;28;20051;-29
2022/10/14 01:15:54;;;;;;;45.42;29.42;;;11.90;99.90;;;;;;5034809;28;20041;-28
2022/10/14 01:18:47;;;;;;;43.10;27.92;;;11.90;99.90;;;;;;5034632;28;20102;-30
2022/10/14 01:21:36;;;;;;;49.73;25.70;;;11.90;99.90;;;;;;5034636;28;20040;-31
2022/10/14 01:24:36;;;;;;;49.85;26.02;;;11.90;99.90;;;;;;5029000;28;20330;-29
2022/10/14 01:27:05;;;;;;;89.78;26.92;;;11.90;99.90;;;;;;5016722;28;20099;-29
2022/10/14 01:29:54;;;;;;;52.47;23.58;;;11.80;99.90;;;;;;5018286;28;20367;-29
2022/10/14 01:32:42;;;;;;;59.53;23.05;;;11.80;99.90;;;;;;5034701;28;20075;-29
2022/10/14 01:35:46;;;;;;;46.35;21.67;;;11.80;99.90;;;;;;5034723;28;20080;-31
2022/10/14 01:38:44;;;;;;;41.05;20.02;;;11.80;99.90;;;;;;4999698;28;20045;-31
2022/10/14 01:41:09;;;;;;;69.05;20.52;;;11.70;99.90;;;;;;5054344;28;20041;-31
2022/10/14 01:43:37;;;;;;;130.75;24.73;;;11.70;99.90;;;;;;5054160;28;20045;-30
2022/10/14 01:46:06;;;;;;;138.57;23.73;;;11.70;99.90;;;;;;5037270;28;20042;-29
2022/10/14 01:48:35;;;;;;;44.60;19.38;;;11.70;99.90;;;;;;5028468;28;20044;-30
2022/10/14 01:51:07;;;;;;;157.85;26.63;;;11.70;99.90;;;;;;5034001;28;20033;-30
2022/10/14 01:53:48;;;;;;;173.55;29.88;;;11.60;99.90;;;;;;5030970;28;20029;-29
2022/10/14 01:56:16;;;;;;;117.90;23.00;;;11.70;99.90;;;;;;5030829;28;20042;-30
2022/10/14 01:58:43;;;;;;;54.80;19.45;;;11.60;99.90;;;;;;5031005;28;20049;-30
2022/10/14 02:01:10;;;;;;;70.57;20.48;;;11.60;99.90;;;;;;5030615;28;20163;-30
2022/10/14 02:03:44;;;;;;;42.63;18.02;;;11.60;99.90;;;;;;5033908;28;20048;-30
2022/10/14 02:06:19;;;;;;;67.70;19.75;;;11.60;99.90;;;;;;5017528;28;20045;-30
2022/10/14 02:09:21;;;;;;;167.15;29.02;;;11.60;99.90;;;;;;5034411;28;20490;-30
2022/10/14 02:12:08;;;;;;;43.45;17.92;;;11.60;99.90;;;;;;5008507;28;20060;-30
2022/10/14 02:14:36;;;;;;;45.42;16.60;;;11.60;99.90;;;;;;5034154;28;20371;-31
2022/10/14 02:17:09;;;;;;;148.60;23.17;;;11.50;99.90;;;;;;5036179;28;20076;-30
2022/10/14 02:19:42;;;;;;;33.90;16.58;;;11.50;99.90;;;;;;5031334;28;20037;-31
2022/10/14 02:22:42;;;;;;;45.17;17.90;;;11.50;99.90;;;;;;5038007;28;20401;-31
2022/10/14 02:25:16;;;;;;;119.50;22.38;;;11.50;99.90;;;;;;5026612;28;20124;-29
2022/10/14 02:27:45;;;;;;;65.05;18.65;;;11.50;99.90;;;;;;5049211;28;20079;-31
2022/10/14 02:30:11;;;;;;;56.63;18.05;;;11.50;99.90;;;;;;5036607;28;20058;-30
2022/10/14 02:32:39;;;;;;;107.55;21.80;;;11.50;99.90;;;;;;5044713;28;20128;-30
2022/10/14 02:35:06;;;;;;;71.10;18.10;;;11.50;99.90;;;;;;5038208;28;20037;-30
2022/10/14 02:37:33;;;;;;;75.80;18.73;;;11.50;99.90;;;;;;5045216;28;20036;-29
2022/10/14 02:40:09;;;;;;;39.20;16.48;;;11.50;99.90;;;;;;5041942;28;20490;-29
2022/10/14 02:42:35;;;;;;;143.35;24.50;;;11.50;99.90;;;;;;5042290;28;20056;-31
2022/10/14 02:45:01;;;;;;;77.85;18.98;;;11.50;99.90;;;;;;5035137;28;20037;-30
2022/10/14 02:47:27;;;;;;;177.60;24.17;;;11.50;99.90;;;;;;5037913;28;20037;-29
2022/10/14 02:49:53;;;;;;;48.47;18.60;;;11.50;99.90;;;;;;5045472;28;20049;-30
2022/10/14 02:52:19;;;;;;;62.67;17.75;;;11.50;99.90;;;;;;5038619;28;20043;-31
2022/10/14 02:54:45;;;;;;;83.40;21.30;;;11.50;99.90;;;;;;5039810;28;20032;-30
2022/10/14 02:57:11;;;;;;;130.13;23.30;;;11.50;99.90;;;;;;5037861;28;20044;-30
2022/10/14 02:59:38;;;;;;;57.35;19.65;;;11.50;99.90;;;;;;5047888;28;20063;-29
2022/10/14 03:02:06;;;;;;;59.30;18.83;;;11.50;99.90;;;;;;5040863;28;20040;-29
2022/10/14 03:04:32;;;;;;;75.07;18.77;;;11.50;99.90;;;;;;5048625;28;20371;-30
2022/10/14 03:06:58;;;;;;;56.33;19.70;;;11.50;99.90;;;;;;5042215;28;20041;-32
2022/10/14 03:09:24;;;;;;;117.53;24.77;;;11.50;99.90;;;;;;5044220;28;20037;-29
2022/10/14 03:11:49;;;;;;;123.40;24.70;;;11.50;99.90;;;;;;5041986;28;20508;-32
2022/10/14 03:14:15;;;;;;;49.33;21.35;;;11.50;99.90;;;;;;5022901;28;20063;-30
2022/10/14 03:16:41;;;;;;;48.10;22.25;;;11.50;99.90;;;;;;5032354;28;20037;-30
2022/10/14 03:19:07;;;;;;;81.93;30.55;;;11.50;99.90;;;;;;5046854;28;20048;-30
2022/10/14 03:21:32;;;;;;;67.63;29.40;;;11.50;99.90;;;;;;5043620;28;20063;-30
2022/10/14 03:24:00;;;;;;;64.57;29.38;;;11.50;99.90;;;;;;5040895;28;20033;-30
2022/10/14 03:26:26;;;;;;;73.32;31.50;;;11.50;99.90;;;;;;5032495;28;20559;-29
2022/10/14 03:28:52;;;;;;;65.10;29.40;;;11.50;99.90;;;;;;5036249;28;20037;-30
2022/10/14 03:31:18;;;;;;;65.88;31.13;;;11.50;99.90;;;;;;5049277;28;20043;-30
2022/10/14 03:33:44;;;;;;;58.10;27.38;;;11.50;99.90;;;;;;5058166;28;20033;-30
2022/10/14 03:36:11;;;;;;;67.15;29.50;;;11.50;99.90;;;;;;5047969;28;20397;-30
2022/10/14 03:38:39;;;;;;;57.55;29.88;;;11.60;99.90;;;;;;5036787;28;20067;-30
2022/10/14 03:41:05;;;;;;;59.80;28.55;;;11.50;99.90;;;;;;5050026;28;20481;-30
2022/10/14 03:43:31;;;;;;;73.57;31.25;;;11.60;99.90;;;;;;5062171;28;20041;-30
2022/10/14 03:45:57;;;;;;;67.25;29.65;;;11.60;99.90;;;;;;5040809;28;20455;-30
2022/10/14 03:48:22;;;;;;;57.83;28.20;;;11.60;99.90;;;;;;5034995;28;20112;-30
2022/10/14 03:50:48;;;;;;;62.53;28.25;;;11.60;99.90;;;;;;5035670;28;20041;-29
2022/10/14 03:53:14;;;;;;;54.75;27.52;;;11.60;99.90;;;;;;5033666;28;20042;-30
2022/10/14 03:55:40;;;;;;;48.70;22.27;;;11.60;99.90;;;;;;5038983;28;20036;-30
2022/10/14 03:58:06;;;;;;;54.42;23.33;;;11.60;99.90;;;;;;5030300;28;20095;-30
2022/10/14 04:00:34;;;;;;;54.40;20.83;;;11.60;99.90;;;;;;5018491;28;20712;-30
2022/10/14 04:03:00;;;;;;;52.70;21.67;;;11.60;99.90;;;;;;5030096;28;20045;-29
2022/10/14 04:05:31;;;;;;;41.63;19.48;;;11.60;99.90;;;;;;5046179;28;20040;-30
2022/10/14 04:08:00;;;;;;;45.33;19.23;;;11.60;99.90;;;;;;5045132;28;20037;-29
2022/10/14 04:10:26;;;;;;;40.22;19.42;;;11.60;99.90;;;;;;5021213;28;20447;-30
2022/10/14 04:12:53;;;;;;;38.67;18.17;;;11.60;99.90;;;;;;5046684;28;20505;-31
2022/10/14 04:15:19;;;;;;;41.50;18.80;;;11.60;99.90;;;;;;5045760;28;20398;-30
2022/10/14 04:17:44;;;;;;;39.05;18.95;;;11.60;99.90;;;;;;5044858;28;20028;-32
2022/10/14 04:20:10;;;;;;;40.05;18.30;;;11.60;99.90;;;;;;5044519;28;20045;-30
2022/10/14 04:22:36;;;;;;;43.22;20.33;;;11.60;99.90;;;;;;5047209;28;20044;-30
2022/10/14 04:25:02;;;;;;;38.67;18.92;;;11.60;99.90;;;;;;5044746;28;20521;-30
2022/10/14 04:27:27;;;;;;;46.58;20.75;;;11.60;99.90;;;;;;5037520;28;20045;-30
2022/10/14 04:29:53;;;;;;;47.05;20.70;;;11.60;99.90;;;;;;5042513;28;20040;-31
2022/10/14 04:32:19;;;;;;;42.20;20.55;;;11.60;99.90;;;;;;5044195;28;20405;-31
2022/10/14 04:34:45;;;;;;;48.63;21.20;;;11.50;99.90;;;;;;5044089;28;20040;-30
2022/10/14 04:37:11;;;;;;;47.17;21.38;;;11.60;99.90;;;;;;5044820;28;20590;-29
2022/10/14 04:39:37;;;;;;;41.53;20.73;;;11.60;99.90;;;;;;5043097;28;20040;-30
2022/10/14 04:42:03;;;;;;;48.47;22.48;;;11.60;99.90;;;;;;5038253;28;20052;-29
2022/10/14 04:44:28;;;;;;;43.72;21.60;;;11.60;99.90;;;;;;5032652;28;20490;-29
2022/10/14 04:46:54;;;;;;;44.95;21.17;;;11.60;99.90;;;;;;5029055;28;20038;-30
2022/10/14 04:49:20;;;;;;;43.08;20.17;;;11.50;99.90;;;;;;5035258;28;20056;-32
2022/10/14 04:51:46;;;;;;;39.60;19.95;;;11.50;99.90;;;;;;5044188;28;20049;-31
2022/10/14 04:54:12;;;;;;;46.97;23.40;;;11.50;99.90;;;;;;5022503;28;20041;-30
2022/10/14 04:56:38;;;;;;;44.63;23.08;;;11.40;99.90;;;;;;5025139;28;20051;-30
2022/10/14 04:59:05;;;;;;;43.55;21.55;;;11.40;99.90;;;;;;5022940;28;20038;-30
2022/10/14 05:01:31;;;;;;;46.17;23.10;;;11.40;99.90;;;;;;5022344;28;20040;-30
2022/10/14 05:03:57;;;;;;;52.17;25.23;;;11.40;99.90;;;;;;5023978;28;20496;-30
2022/10/14 05:06:22;;;;;;;47.38;23.90;;;11.50;99.90;;;;;;5034275;28;20041;-29
2022/10/14 05:08:48;;;;;;;46.38;24.55;;;11.50;99.90;;;;;;5023884;28;20045;-30
2022/10/14 05:11:14;;;;;;;49.08;25.25;;;11.40;99.90;;;;;;5033281;28;20083;-30
2022/10/14 05:13:41;;;;;;;46.70;23.30;;;11.40;99.90;;;;;;5030114;28;20120;-31
2022/10/14 05:16:07;;;;;;;49.53;23.63;;;11.40;99.90;;;;;;5041436;28;20038;-30
2022/10/14 05:18:33;;;;;;;59.53;26.65;;;11.40;99.90;;;;;;5024566;28;20107;-31
2022/10/14 05:20:59;;;;;;;57.50;26.88;;;11.40;99.90;;;;;;5021924;28;20436;-30
2022/10/14 05:23:26;;;;;;;67.97;27.83;;;11.40;99.90;;;;;;5029739;28;20120;-29
2022/10/14 05:25:52;;;;;;;54.17;26.20;;;11.40;99.90;;;;;;5021616;28;20135;-31
2022/10/14 05:28:18;;;;;;;53.67;25.75;;;11.40;99.90;;;;;;5028866;28;20521;-31
2022/10/14 05:30:44;;;;;;;58.92;25.83;;;11.40;99.90;;;;;;5028463;28;20041;-30
2022/10/14 05:33:10;;;;;;;51.78;25.13;;;11.40;99.90;;;;;;5023040;28;20034;-30
2022/10/14 05:35:36;;;;;;;71.78;31.08;;;11.30;99.90;;;;;;5032942;28;20486;-31
2022/10/14 05:38:03;;;;;;;71.90;30.63;;;11.30;99.90;;;;;;5027435;28;20094;-30
2022/10/14 05:40:28;;;;;;;65.10;28.38;;;11.30;99.90;;;;;;5023215;28;20513;-28
2022/10/14 05:42:54;;;;;;;56.53;27.73;;;11.20;99.90;;;;;;5023520;28;20032;-28
2022/10/14 05:45:20;;;;;;;55.72;26.23;;;11.20;99.90;;;;;;5035757;28;20032;-30
2022/10/14 05:47:46;;;;;;;49.03;25.25;;;11.10;99.90;;;;;;5032415;28;20386;-30
2022/10/14 05:50:13;;;;;;;48.28;26.27;;;11.10;99.90;;;;;;5014919;28;20037;-30
2022/10/14 05:52:39;;;;;;;46.90;24.50;;;11.00;99.90;;;;;;5041055;28;20037;-30
2022/10/14 05:55:07;;;;;;;56.90;26.10;;;11.00;99.90;;;;;;5046763;28;20037;-29
2022/10/14 05:57:33;;;;;;;46.03;24.58;;;10.90;99.90;;;;;;5026041;28;20033;-30
2022/10/14 05:59:59;;;;;;;48.78;24.17;;;10.90;99.90;;;;;;5036712;28;20402;-28
2022/10/14 06:02:25;;;;;;;55.40;26.35;;;10.90;99.90;;;;;;5033609;28;20438;-32
2022/10/14 06:04:51;;;;;;;43.88;24.27;;;10.90;99.90;;;;;;5032310;28;20068;-29
2022/10/14 06:07:17;;;;;;;43.38;23.63;;;10.80;99.90;;;;;;5040263;28;20033;-29
2022/10/14 06:09:43;;;;;;;41.72;22.10;;;10.80;99.90;;;;;;5029327;28;20037;-31
2022/10/14 06:12:09;;;;;;;42.25;21.23;;;10.80;99.90;;;;;;5039433;28;20044;-29
2022/10/14 06:14:37;;;;;;;42.58;21.23;;;10.90;99.90;;;;;;5030769;28;20035;-29
2022/10/14 06:17:06;;;;;;;44.15;21.25;;;10.90;99.90;;;;;;5039882;28;20040;-30
2022/10/14 06:19:32;;;;;;;40.47;20.30;;;10.90;99.90;;;;;;5039758;28;20037;-29
2022/10/14 06:21:58;;;;;;;41.20;21.50;;;10.90;99.90;;;;;;5039319;28;20074;-28
2022/10/14 06:24:24;;;;;;;38.67;20.42;;;10.90;99.90;;;;;;5036105;28;20036;-29
2022/10/14 06:26:49;;;;;;;44.05;21.40;;;11.00;99.90;;;;;;5030577;28;20030;-29
2022/10/14 06:29:16;;;;;;;39.97;20.30;;;10.90;99.90;;;;;;5048627;28;20119;-30
2022/10/14 06:31:42;;;;;;;40.20;20.02;;;11.00;99.90;;;;;;5038816;28;20396;-29
2022/10/14 06:34:08;;;;;;;38.92;20.92;;;11.00;99.90;;;;;;5048863;28;20063;-29
2022/10/14 06:36:35;;;;;;;42.20;22.77;;;11.10;99.90;;;;;;5038660;28;20029;-30
2022/10/14 06:39:01;;;;;;;40.92;22.05;;;11.10;99.90;;;;;;5042319;28;20426;-30
2022/10/14 06:41:27;;;;;;;35.42;19.67;;;11.10;99.90;;;;;;5039377;28;20076;-29
2022/10/14 06:43:53;;;;;;;48.00;21.60;;;11.10;99.90;;;;;;5042412;28;20076;-29
2022/10/14 06:46:18;;;;;;;43.40;22.33;;;11.20;99.90;;;;;;5044280;28;20485;-29
2022/10/14 06:48:44;;;;;;;35.78;19.55;;;11.20;99.90;;;;;;5033185;28;20079;-30
2022/10/14 06:51:10;;;;;;;41.78;21.75;;;11.30;99.90;;;;;;5049509;28;20504;-29
2022/10/14 06:53:35;;;;;;;42.35;21.00;;;11.30;99.90;;;;;;5046046;28;20040;-29
2022/10/14 06:56:05;;;;;;;37.22;20.48;;;11.40;99.90;;;;;;5049157;28;20033;-30
2022/10/14 06:58:32;;;;;;;34.92;19.52;;;11.40;99.90;;;;;;5040766;28;20473;-31
2022/10/14 07:01:03;;;;;;;37.50;20.80;;;11.40;99.90;;;;;;5051418;28;20029;-29
2022/10/14 07:03:28;;;;;;;37.17;20.60;;;11.50;99.90;;;;;;5041411;28;20045;-29
2022/10/14 07:05:54;;;;;;;37.13;20.40;;;11.60;99.90;;;;;;5034147;28;20097;-29
2022/10/14 07:08:20;;;;;;;36.17;20.50;;;11.60;99.90;;;;;;5030667;28;20033;-29
2022/10/14 07:10:47;;;;;;;45.58;23.10;;;11.60;99.90;;;;;;5036676;28;20398;-29
2022/10/14 07:13:13;;;;;;;42.08;23.48;;;11.70;99.90;;;;;;5032350;28;20041;-31
2022/10/14 07:15:39;;;;;;;36.63;21.33;;;11.70;99.90;;;;;;5036079;28;20033;-30
2022/10/14 07:18:05;;;;;;;38.45;21.45;;;11.70;99.90;;;;;;5033384;28;20501;-30
2022/10/14 07:20:33;;;;;;;39.10;22.50;;;11.80;99.90;;;;;;5034651;28;20386;-31
2022/10/14 07:22:59;;;;;;;42.45;22.40;;;11.80;99.90;;;;;;5033536;28;20041;-31
2022/10/14 07:25:24;;;;;;;46.00;23.42;;;11.90;99.90;;;;;;5034712;28;20033;-28
2022/10/14 07:27:52;;;;;;;43.25;22.92;;;11.90;99.90;;;;;;5042124;28;20375;-29
2022/10/14 07:30:18;;;;;;;43.83;23.90;;;11.90;99.90;;;;;;5039765;28;20099;-28
2022/10/14 07:32:44;;;;;;;51.80;25.55;;;11.90;99.90;;;;;;5042818;28;20046;-30
2022/10/14 07:35:09;;;;;;;51.10;26.50;;;12.00;99.90;;;;;;5047147;28;20518;-27
2022/10/14 07:37:35;;;;;;;47.58;24.75;;;12.00;99.90;;;;;;5037186;28;20037;-28
2022/10/14 07:40:01;;;;;;;44.83;24.42;;;12.00;99.90;;;;;;5042208;28;20037;-29
2022/10/14 07:42:27;;;;;;;45.15;24.52;;;12.10;99.90;;;;;;5059025;28;20383;-28
2022/10/14 07:44:53;;;;;;;46.13;23.23;;;12.10;99.90;;;;;;5041065;28;20044;-28
2022/10/14 07:47:20;;;;;;;40.15;23.13;;;12.10;99.90;;;;;;5029107;28;20040;-29
2022/10/14 07:49:46;;;;;;;43.47;22.70;;;12.10;99.90;;;;;;5033347;28;20513;-30
2022/10/14 07:52:11;;;;;;;43.35;21.90;;;12.10;99.90;;;;;;5061164;28;20518;-29
2022/10/14 07:54:37;;;;;;;37.38;22.52;;;12.20;99.90;;;;;;5049763;28;20044;-29
2022/10/14 07:57:03;;;;;;;38.88;22.08;;;12.20;99.90;;;;;;5056007;28;20044;-30
2022/10/14 07:59:29;;;;;;;39.95;22.85;;;12.20;99.90;;;;;;5045662;28;20033;-27
2022/10/14 08:01:55;;;;;;;46.75;24.80;;;12.30;99.90;;;;;;5033875;28;20067;-29
2022/10/14 08:04:22;;;;;;;42.63;23.50;;;12.30;99.90;;;;;;5051592;28;20033;-28
2022/10/14 08:06:49;;;;;;;41.00;22.20;;;12.30;99.90;;;;;;5049667;28;20075;-30
2022/10/14 08:09:17;;;;;;;46.53;24.38;;;12.30;99.90;;;;;;5030756;28;20390;-30
2022/10/14 08:11:43;;;;;;;44.22;23.38;;;12.40;99.90;;;;;;5039668;28;20198;-29
2022/10/14 08:14:09;;;;;;;46.55;23.55;;;12.40;99.90;;;;;;5064430;28;20048;-31
2022/10/14 08:16:36;;;;;;;48.30;25.23;;;12.40;99.90;;;;;;5044220;28;20043;-31
2022/10/14 08:19:08;;;;;;;43.83;24.00;;;12.40;99.90;;;;;;5044361;28;20528;-29
2022/10/14 08:21:34;;;;;;;50.13;26.38;;;12.50;99.90;;;;;;5042553;28;20033;-29
2022/10/14 08:24:00;;;;;;;43.28;24.15;;;12.40;99.90;;;;;;5042736;28;20083;-30
2022/10/14 08:26:30;;;;;;;51.90;26.05;;;12.50;99.90;;;;;;5045232;28;20524;-29
2022/10/14 08:28:58;;;;;;;48.78;25.58;;;12.50;99.90;;;;;;5040552;28;20036;-28
2022/10/14 08:31:24;;;;;;;46.25;24.70;;;12.50;99.90;;;;;;5065309;28;20036;-29
2022/10/14 08:33:50;;;;;;;47.85;25.90;;;12.50;99.90;;;;;;5058701;28;20040;-29
2022/10/14 08:36:17;;;;;;;56.72;29.75;;;12.60;99.90;;;;;;5047825;28;20037;-30
2022/10/14 08:38:43;;;;;;;49.75;29.30;;;12.60;99.90;;;;;;5044480;28;20033;-31
2022/10/14 08:41:15;;;;;;;52.28;26.95;;;12.70;99.90;;;;;;5049699;28;20040;-29
2022/10/14 08:44:11;;;;;;;58.22;29.45;;;12.70;99.90;;;;;;5036799;28;20513;-29
2022/10/14 08:46:51;;;;;;;54.55;26.88;;;12.70;99.90;;;;;;5029585;28;20037;-29
2022/10/14 08:49:43;;;;;;;54.85;29.52;;;12.70;99.90;;;;;;5016352;28;20049;-29
2022/10/14 08:52:17;;;;;;;60.47;30.15;;;12.80;99.90;;;;;;5040060;28;20052;-29
2022/10/14 08:54:51;;;;;;;59.88;30.15;;;12.80;99.90;;;;;;5030616;28;20120;-30
2022/10/14 08:57:24;;;;;;;62.83;30.38;;;12.90;99.90;;;;;;5035758;28;20076;-29
2022/10/14 08:59:50;;;;;;;54.28;27.70;;;12.90;99.90;;;;;;5043942;28;20060;-29
2022/10/14 09:02:32;;;;;;;60.38;29.92;;;12.90;99.90;;;;;;5029102;28;20052;-31
2022/10/14 09:04:59;;;;;;;57.13;27.38;;;12.90;99.90;;;;;;5017937;28;20080;-29
2022/10/14 09:07:25;;;;;;;60.78;28.83;;;12.90;99.90;;;;;;5045174;28;20101;-30
2022/10/14 09:09:58;;;;;;;58.03;29.92;;;13.00;99.90;;;;;;5048488;28;20040;-29
2022/10/14 09:12:27;;;;;;;63.92;30.38;;;13.00;99.90;;;;;;5040412;28;20345;-30
2022/10/14 09:15:29;;;;;;;53.45;27.17;;;13.00;99.90;;;;;;5043421;28;20037;-40
2022/10/14 09:18:23;;;;;;;55.35;26.50;;;13.00;99.90;;;;;;5028018;28;20052;-39
2022/10/14 09:20:50;;;;;;;55.17;28.45;;;13.10;99.90;;;;;;5041100;28;20123;-31
2022/10/14 09:23:19;;;;;;;59.97;29.13;;;13.10;99.90;;;;;;5036457;28;20041;-30
2022/10/14 09:26:10;;;;;;;52.53;27.13;;;13.10;99.90;;;;;;5047180;28;20082;-29
2022/10/14 09:28:39;;;;;;;51.17;26.33;;;13.20;99.90;;;;;;5053466;28;20041;-29
2022/10/14 09:31:09;;;;;;;65.28;28.23;;;13.20;99.90;;;;;;5038738;28;20039;-29
2022/10/14 09:33:43;;;;;;;65.20;27.25;;;13.20;99.90;;;;;;5023197;28;20041;-29
2022/10/14 09:36:17;;;;;;;55.15;26.55;;;13.10;99.90;;;;;;5027929;28;20056;-29
2022/10/14 09:38:51;;;;;;;55.97;27.27;;;13.10;99.90;;;;;;5040438;28;20036;-31
2022/10/14 09:41:21;;;;;;;61.42;27.80;;;13.10;99.90;;;;;;5044798;28;20033;-43
2022/10/14 09:44:18;;;;;;;69.97;29.83;;;13.00;99.90;;;;;;5035943;28;20040;-30
2022/10/14 09:46:50;;;;;;;64.20;27.13;;;13.00;99.90;;;;;;5039941;28;20036;-31
2022/10/14 09:49:28;;;;;;;72.63;30.52;;;13.00;99.90;;;;;;5039962;28;20048;-31
2022/10/14 09:51:55;;;;;;;65.63;27.80;;;13.00;99.90;;;;;;5062375;28;20124;-31
2022/10/14 09:54:25;;;;;;;56.33;27.13;;;13.00;99.90;;;;;;5040724;28;20040;-30
2022/10/14 09:57:06;;;;;;;68.20;28.05;;;13.00;99.90;;;;;;5040864;28;20032;-31
2022/10/14 09:59:47;;;;;;;54.97;27.55;;;13.00;99.90;;;;;;5038758;28;20452;-31
2022/10/14 10:02:23;;;;;;;58.55;26.65;;;13.00;99.90;;;;;;5035332;28;20120;-32
2022/10/14 10:04:49;;;;;;;62.20;27.45;;;13.00;99.90;;;;;;5036782;28;20160;-30
2022/10/14 10:07:33;;;;;;;61.63;29.65;;;13.00;99.90;;;;;;5041750;28;20033;-37
2022/10/14 10:10:04;;;;;;;65.78;27.60;;;13.00;99.90;;;;;;5031597;28;20068;-31
2022/10/14 10:12:32;;;;;;;67.95;28.33;;;13.10;99.90;;;;;;5043848;28;20049;-37
2022/10/14 10:15:05;;;;;;;67.20;28.15;;;13.10;99.90;;;;;;5054639;28;20466;-31
2022/10/14 10:17:34;;;;;;;66.25;29.45;;;13.10;99.90;;;;;;5031044;28;20036;-31
2022/10/14 10:20:32;;;;;;;59.13;27.27;;;13.20;99.90;;;;;;5040619;28;20036;-31
2022/10/14 10:23:25;;;;;;;54.63;26.45;;;13.20;99.90;;;;;;5025278;28;20049;-30
2022/10/14 10:25:51;;;;;;;52.15;27.08;;;13.20;99.90;;;;;;5023360;28;20038;-33
2022/10/14 10:28:26;;;;;;;60.15;27.67;;;13.20;99.90;;;;;;5025254;28;20045;-30
2022/10/14 10:30:58;;;;;;;59.85;27.33;;;13.20;99.90;;;;;;5033849;28;20456;-31
2022/10/14 10:33:35;;;;;;;64.40;28.35;;;13.20;99.90;;;;;;5061660;28;20412;-31
2022/10/14 10:36:27;;;;;;;61.35;28.42;;;13.20;99.90;;;;;;5025093;28;20111;-32
2022/10/14 10:39:00;;;;;;;57.90;28.63;;;13.30;99.90;;;;;;5033707;28;20099;-31
2022/10/14 10:41:52;;;;;;;64.38;30.35;;;13.30;99.90;;;;;;5044219;28;20041;-31
2022/10/14 10:44:39;;;;;;;57.33;27.45;;;13.20;99.90;;;;;;5008523;28;20037;-29
2022/10/14 10:47:23;;;;;;;66.57;30.00;;;13.20;99.90;;;;;;5034496;28;20040;-32
2022/10/14 10:50:25;;;;;;;63.47;28.98;;;13.30;99.90;;;;;;5052081;28;20443;-31
2022/10/14 10:53:10;;;;;;;63.35;29.65;;;13.30;99.90;;;;;;5039351;28;20036;-30
2022/10/14 10:56:06;;;;;;;59.17;27.80;;;13.30;99.90;;;;;;5033635;28;20417;-32
2022/10/14 10:58:47;;;;;;;55.20;28.08;;;13.30;99.90;;;;;;5058613;28;20419;-31
2022/10/14 11:01:32;;;;;;;65.55;29.40;;;13.30;99.90;;;;;;5053835;28;20037;-31
2022/10/14 11:04:19;;;;;;;70.68;31.13;;;13.40;99.90;;;;;;5033053;28;20045;-31
2022/10/14 11:12:58;;;;;;;58.85;30.27;;;13.50;99.90;;;;;;5049478;28;20382;-32
2022/10/14 11:15:39;;;;;;;63.67;30.25;;;13.60;99.90;;;;;;5035408;28;20037;-31
2022/10/14 11:18:26;;;;;;;69.03;32.45;;;13.70;99.90;;;;;;5034370;28;20029;-30
2022/10/14 11:21:13;;;;;;;65.38;31.15;;;13.70;99.90;;;;;;5033175;28;20487;-30
2022/10/14 11:24:02;;;;;;;70.90;33.67;;;13.80;99.90;;;;;;5052205;28;20041;-31
2022/10/14 11:26:45;;;;;;;75.63;34.40;;;13.80;99.90;;;;;;5032650;28;20600;-29
2022/10/14 11:29:22;;;;;;;71.47;33.90;;;13.90;99.90;;;;;;5036634;28;20100;-31
2022/10/14 11:32:04;;;;;;;73.95;34.13;;;13.90;99.90;;;;;;5047367;28;20119;-31
2022/10/14 11:34:46;;;;;;;68.55;33.58;;;14.00;99.90;;;;;;5051176;28;20838;-30
2022/10/14 11:37:46;;;;;;;65.35;33.95;;;14.00;99.90;;;;;;5034802;28;20029;-29
2022/10/14 11:40:30;;;;;;;65.43;34.97;;;14.10;99.90;;;;;;5032476;28;20048;-31
2022/10/14 11:43:00;;;;;;;;;;;14.20;99.90;;;;;;5034672;28;20605;-31
2022/10/14 11:45:37;;;;;;;76.70;38.33;;;14.30;99.90;;;;;;5030389;28;19924;-30
2022/10/14 11:48:21;;;;;;;68.07;34.80;;;14.40;99.90;;;;;;5032701;28;20041;-31
2022/10/14 11:50:53;;;;;;;67.68;36.20;;;14.40;99.90;;;;;;5016901;28;20047;-32
2022/10/14 11:53:26;;;;;;;67.45;37.10;;;14.50;99.90;;;;;;5034793;28;20547;-34
2022/10/14 11:56:08;;;;;;;61.58;35.55;;;14.50;99.90;;;;;;5046742;28;20043;-33
2022/10/14 11:58:37;;;;;;;60.90;35.35;;;14.50;99.90;;;;;;5031743;28;20036;-33
2022/10/14 12:01:03;;;;;;;55.83;33.80;;;14.50;99.90;;;;;;5050684;28;20563;-34
2022/10/14 12:03:58;;;;;;;61.63;37.17;;;14.50;99.90;;;;;;5028897;28;20037;-34
2022/10/14 12:06:33;;;;;;;53.28;33.05;;;14.50;99.90;;;;;;5035693;28;20040;-33
2022/10/14 12:09:10;;;;;;;48.35;30.38;;;14.50;99.90;;;;;;5034057;28;20040;-33
2022/10/14 12:12:02;;;;;;;51.05;29.88;;;14.50;99.90;;;;;;5032362;28;20040;-35
2022/10/14 12:14:42;;;;;;;42.67;27.00;;;14.60;99.90;;;;;;5048651;28;20515;-32
2022/10/14 12:17:28;;;;;;;39.40;24.38;;;14.60;99.90;;;;;;5029968;28;20041;-32
2022/10/14 12:19:55;;;;;;;35.13;24.02;;;14.60;99.90;;;;;;5018621;28;20045;-34
2022/10/14 12:22:25;;;;;;;34.25;23.52;;;14.70;99.90;;;;;;5037404;28;20041;-33
2022/10/14 12:25:00;;;;;;;32.47;22.33;;;14.70;99.90;;;;;;5035448;28;20033;-34
2022/10/14 12:27:28;;;;;;;33.35;22.80;;;14.80;99.90;;;;;;5052354;28;20093;-34
2022/10/14 12:29:57;;;;;;;31.35;23.02;;;14.70;99.90;;;;;;5047050;28;20471;-34
2022/10/14 12:32:30;;;;;;;31.02;21.90;;;14.80;99.90;;;;;;5035404;28;20037;-34
2022/10/14 12:35:00;;;;;;;26.33;20.40;;;14.80;99.90;;;;;;5025626;28;20033;-36
2022/10/14 12:37:33;;;;;;;27.30;20.70;;;14.90;99.90;;;;;;5042079;28;20029;-34
2022/10/14 12:40:05;;;;;;;28.35;20.85;;;15.00;99.90;;;;;;5039195;28;20394;-34
2022/10/14 12:42:41;;;;;;;24.48;19.23;;;15.00;99.90;;;;;;5040391;28;20046;-32
2022/10/14 12:45:25;;;;;;;24.25;18.75;;;15.10;99.90;;;;;;5022011;28;20033;-32
2022/10/14 12:48:21;;;;;;;28.25;19.50;;;15.10;99.90;;;;;;5031020;28;20037;-34
2022/10/14 12:50:50;;;;;;;23.88;18.80;;;15.10;99.90;;;;;;5048114;28;20049;-31
2022/10/14 12:53:35;;;;;;;21.63;19.02;;;15.10;99.90;;;;;;5051997;28;20546;-31
2022/10/14 12:56:03;;;;;;;23.85;18.80;;;15.10;99.90;;;;;;5046050;28;20381;-34